sensor_id;sensor_type;location;lat;lon;timestamp;P1;durP1;ratioP1;P2;durP2;ratioP2
13611;SDS011;6877;51.436;6.774;2023-07-31T00:01:37;14.30;;;5.65;;
13611;SDS011;6877;51.436;6.774;2023-07-31T00:04:09;25.38;;;6.68;;
13611;SDS011;6877;51.436;6.774;2023-07-31T00:06:35;15.38;;;6.32;;
13611;SDS011;6877;51.436;6.774;2023-07-31T00:09:02;17.30;;;6.30;;
13611;SDS011;6877;51.436;6.774;2023-07-31T00:11:28;14.38;;;6.47;;
13611;SDS011;6877;51.436;6.774;2023-07-31T00:13:55;16.65;;;7.55;;
13611;SDS011;6877;51.436;6.774;2023-07-31T00:16:21;16.70;;;6.47;;
13611;SDS011;6877;51.436;6.774;2023-07-31T00:18:48;17.45;;;6.10;;
13611;SDS011;6877;51.436;6.774;2023-07-31T00:21:14;18.92;;;6.53;;
13611;SDS011;6877;51.436;6.774;2023-07-31T00:23:45;15.43;;;6.97;;
13611;SDS011;6877;51.436;6.774;2023-07-31T00:26:12;16.80;;;5.55;;
13611;SDS011;6877;51.436;6.774;2023-07-31T00:28:43;15.43;;;6.32;;
13611;SDS011;6877;51.436;6.774;2023-07-31T00:31:13;19.40;;;6.18;;
13611;SDS011;6877;51.436;6.774;2023-07-31T00:33:44;16.88;;;6.28;;
13611;SDS011;6877;51.436;6.774;2023-07-31T00:36:16;16.98;;;5.78;;
13611;SDS011;6877;51.436;6.774;2023-07-31T00:38:48;16.30;;;5.60;;
13611;SDS011;6877;51.436;6.774;2023-07-31T00:41:15;16.17;;;5.72;;
13611;SDS011;6877;51.436;6.774;2023-07-31T00:43:46;16.98;;;7.63;;
13611;SDS011;6877;51.436;6.774;2023-07-31T00:46:13;21.20;;;6.25;;
13611;SDS011;6877;51.436;6.774;2023-07-31T00:48:44;19.02;;;5.28;;
13611;SDS011;6877;51.436;6.774;2023-07-31T00:51:11;15.98;;;6.78;;
13611;SDS011;6877;51.436;6.774;2023-07-31T00:53:43;22.67;;;6.35;;
13611;SDS011;6877;51.436;6.774;2023-07-31T00:56:09;15.32;;;5.80;;
13611;SDS011;6877;51.436;6.774;2023-07-31T00:58:37;11.32;;;5.47;;
13611;SDS011;6877;51.436;6.774;2023-07-31T01:01:03;19.58;;;6.30;;
13611;SDS011;6877;51.436;6.774;2023-07-31T01:03:30;15.60;;;5.30;;
13611;SDS011;6877;51.436;6.774;2023-07-31T01:06:01;16.58;;;6.57;;
13611;SDS011;6877;51.436;6.774;2023-07-31T01:08:41;9.98;;;5.07;;
13611;SDS011;6877;51.436;6.774;2023-07-31T01:11:27;10.00;;;5.20;;
13611;SDS011;6877;51.436;6.774;2023-07-31T01:14:01;18.45;;;5.90;;
13611;SDS011;6877;51.436;6.774;2023-07-31T01:16:28;19.88;;;5.97;;
13611;SDS011;6877;51.436;6.774;2023-07-31T01:18:59;14.45;;;6.25;;
13611;SDS011;6877;51.436;6.774;2023-07-31T01:21:30;17.90;;;5.75;;
13611;SDS011;6877;51.436;6.774;2023-07-31T01:24:22;13.00;;;5.38;;
13611;SDS011;6877;51.436;6.774;2023-07-31T01:26:57;15.48;;;5.32;;
13611;SDS011;6877;51.436;6.774;2023-07-31T01:32:15;13.93;;;5.07;;
13611;SDS011;6877;51.436;6.774;2023-07-31T01:34:44;13.90;;;6.15;;
13611;SDS011;6877;51.436;6.774;2023-07-31T01:37:12;14.32;;;5.05;;
13611;SDS011;6877;51.436;6.774;2023-07-31T01:39:38;16.17;;;4.80;;
13611;SDS011;6877;51.436;6.774;2023-07-31T01:42:09;16.92;;;4.68;;
13611;SDS011;6877;51.436;6.774;2023-07-31T01:44:36;18.40;;;5.38;;
13611;SDS011;6877;51.436;6.774;2023-07-31T01:47:07;13.50;;;4.43;;
13611;SDS011;6877;51.436;6.774;2023-07-31T01:49:34;10.50;;;4.55;;
13611;SDS011;6877;51.436;6.774;2023-07-31T01:52:00;13.32;;;5.13;;
13611;SDS011;6877;51.436;6.774;2023-07-31T01:54:31;10.07;;;4.68;;
13611;SDS011;6877;51.436;6.774;2023-07-31T01:56:59;18.75;;;6.40;;
13611;SDS011;6877;51.436;6.774;2023-07-31T01:59:30;15.38;;;4.72;;
13611;SDS011;6877;51.436;6.774;2023-07-31T02:01:57;13.05;;;4.13;;
13611;SDS011;6877;51.436;6.774;2023-07-31T02:04:23;13.98;;;5.22;;
13611;SDS011;6877;51.436;6.774;2023-07-31T02:06:55;13.45;;;4.28;;
13611;SDS011;6877;51.436;6.774;2023-07-31T02:09:26;13.50;;;5.00;;
13611;SDS011;6877;51.436;6.774;2023-07-31T02:11:52;12.75;;;5.75;;
13611;SDS011;6877;51.436;6.774;2023-07-31T02:14:19;11.65;;;4.45;;
13611;SDS011;6877;51.436;6.774;2023-07-31T02:16:45;16.88;;;4.65;;
13611;SDS011;6877;51.436;6.774;2023-07-31T02:19:12;16.55;;;4.88;;
13611;SDS011;6877;51.436;6.774;2023-07-31T02:21:38;9.23;;;4.43;;
13611;SDS011;6877;51.436;6.774;2023-07-31T02:24:10;14.07;;;5.50;;
13611;SDS011;6877;51.436;6.774;2023-07-31T02:26:36;14.70;;;4.78;;
13611;SDS011;6877;51.436;6.774;2023-07-31T02:29:03;13.88;;;4.38;;
13611;SDS011;6877;51.436;6.774;2023-07-31T02:31:34;14.48;;;5.30;;
13611;SDS011;6877;51.436;6.774;2023-07-31T02:34:01;11.07;;;5.05;;
13611;SDS011;6877;51.436;6.774;2023-07-31T02:36:32;10.88;;;4.72;;
13611;SDS011;6877;51.436;6.774;2023-07-31T02:38:58;13.20;;;4.50;;
13611;SDS011;6877;51.436;6.774;2023-07-31T02:41:25;17.67;;;5.20;;
13611;SDS011;6877;51.436;6.774;2023-07-31T02:43:51;13.65;;;4.78;;
13611;SDS011;6877;51.436;6.774;2023-07-31T02:46:23;10.30;;;5.07;;
13611;SDS011;6877;51.436;6.774;2023-07-31T02:48:51;12.23;;;5.85;;
13611;SDS011;6877;51.436;6.774;2023-07-31T02:51:17;17.67;;;5.38;;
13611;SDS011;6877;51.436;6.774;2023-07-31T02:53:44;20.98;;;5.10;;
13611;SDS011;6877;51.436;6.774;2023-07-31T02:56:10;9.80;;;4.85;;
13611;SDS011;6877;51.436;6.774;2023-07-31T02:58:37;11.25;;;5.25;;
13611;SDS011;6877;51.436;6.774;2023-07-31T03:01:03;12.98;;;4.07;;
13611;SDS011;6877;51.436;6.774;2023-07-31T03:03:35;17.17;;;5.78;;
13611;SDS011;6877;51.436;6.774;2023-07-31T03:06:01;11.75;;;4.47;;
13611;SDS011;6877;51.436;6.774;2023-07-31T03:08:33;15.10;;;5.20;;
13611;SDS011;6877;51.436;6.774;2023-07-31T03:10:59;13.85;;;5.28;;
13611;SDS011;6877;51.436;6.774;2023-07-31T03:13:25;11.98;;;4.55;;
13611;SDS011;6877;51.436;6.774;2023-07-31T03:15:52;8.70;;;4.47;;
13611;SDS011;6877;51.436;6.774;2023-07-31T03:18:18;16.83;;;5.60;;
13611;SDS011;6877;51.436;6.774;2023-07-31T03:20:45;13.70;;;4.93;;
13611;SDS011;6877;51.436;6.774;2023-07-31T03:23:16;13.43;;;4.85;;
13611;SDS011;6877;51.436;6.774;2023-07-31T03:25:55;12.98;;;4.85;;
13611;SDS011;6877;51.436;6.774;2023-07-31T03:28:22;13.68;;;4.95;;
13611;SDS011;6877;51.436;6.774;2023-07-31T03:30:54;10.38;;;4.90;;
13611;SDS011;6877;51.436;6.774;2023-07-31T03:33:25;19.42;;;6.97;;
13611;SDS011;6877;51.436;6.774;2023-07-31T03:35:57;25.30;;;5.30;;
13611;SDS011;6877;51.436;6.774;2023-07-31T03:38:23;13.80;;;5.50;;
13611;SDS011;6877;51.436;6.774;2023-07-31T03:40:50;9.82;;;5.43;;
13611;SDS011;6877;51.436;6.774;2023-07-31T03:43:16;16.10;;;4.45;;
13611;SDS011;6877;51.436;6.774;2023-07-31T03:45:43;11.80;;;5.40;;
13611;SDS011;6877;51.436;6.774;2023-07-31T03:48:14;10.73;;;4.65;;
13611;SDS011;6877;51.436;6.774;2023-07-31T03:50:46;12.90;;;4.53;;
13611;SDS011;6877;51.436;6.774;2023-07-31T03:53:18;14.65;;;4.43;;
13611;SDS011;6877;51.436;6.774;2023-07-31T03:55:49;15.07;;;4.60;;
13611;SDS011;6877;51.436;6.774;2023-07-31T03:58:15;11.07;;;5.00;;
13611;SDS011;6877;51.436;6.774;2023-07-31T04:00:47;11.93;;;5.30;;
13611;SDS011;6877;51.436;6.774;2023-07-31T04:03:18;12.38;;;4.93;;
13611;SDS011;6877;51.436;6.774;2023-07-31T04:05:45;12.85;;;5.07;;
13611;SDS011;6877;51.436;6.774;2023-07-31T04:08:16;15.60;;;5.93;;
13611;SDS011;6877;51.436;6.774;2023-07-31T04:10:42;9.07;;;4.30;;
13611;SDS011;6877;51.436;6.774;2023-07-31T04:13:14;15.57;;;6.03;;
13611;SDS011;6877;51.436;6.774;2023-07-31T04:15:40;9.55;;;5.00;;
13611;SDS011;6877;51.436;6.774;2023-07-31T04:18:07;18.90;;;5.13;;
13611;SDS011;6877;51.436;6.774;2023-07-31T04:20:33;11.10;;;4.30;;
13611;SDS011;6877;51.436;6.774;2023-07-31T04:23:00;16.13;;;5.47;;
13611;SDS011;6877;51.436;6.774;2023-07-31T04:25:31;14.63;;;4.18;;
13611;SDS011;6877;51.436;6.774;2023-07-31T04:27:58;11.85;;;5.13;;
13611;SDS011;6877;51.436;6.774;2023-07-31T04:30:29;12.05;;;5.10;;
13611;SDS011;6877;51.436;6.774;2023-07-31T04:32:56;11.18;;;4.63;;
13611;SDS011;6877;51.436;6.774;2023-07-31T04:35:27;12.82;;;4.50;;
13611;SDS011;6877;51.436;6.774;2023-07-31T04:37:59;15.77;;;5.03;;
13611;SDS011;6877;51.436;6.774;2023-07-31T04:40:25;10.43;;;4.57;;
13611;SDS011;6877;51.436;6.774;2023-07-31T04:42:56;11.32;;;6.20;;
13611;SDS011;6877;51.436;6.774;2023-07-31T04:45:23;7.95;;;3.95;;
13611;SDS011;6877;51.436;6.774;2023-07-31T04:47:49;19.20;;;5.35;;
13611;SDS011;6877;51.436;6.774;2023-07-31T04:50:21;11.98;;;4.97;;
13611;SDS011;6877;51.436;6.774;2023-07-31T04:52:47;13.45;;;5.53;;
13611;SDS011;6877;51.436;6.774;2023-07-31T04:55:19;9.15;;;4.88;;
13611;SDS011;6877;51.436;6.774;2023-07-31T04:57:45;10.40;;;4.60;;
13611;SDS011;6877;51.436;6.774;2023-07-31T05:00:17;12.48;;;5.05;;
13611;SDS011;6877;51.436;6.774;2023-07-31T05:02:43;13.73;;;5.63;;
13611;SDS011;6877;51.436;6.774;2023-07-31T05:05:10;10.27;;;4.43;;
13611;SDS011;6877;51.436;6.774;2023-07-31T05:07:36;18.27;;;6.82;;
13611;SDS011;6877;51.436;6.774;2023-07-31T05:10:08;18.48;;;6.65;;
13611;SDS011;6877;51.436;6.774;2023-07-31T05:12:35;13.23;;;6.38;;
13611;SDS011;6877;51.436;6.774;2023-07-31T05:15:01;19.13;;;6.72;;
13611;SDS011;6877;51.436;6.774;2023-07-31T05:17:33;17.63;;;7.15;;
13611;SDS011;6877;51.436;6.774;2023-07-31T05:19:59;16.73;;;7.13;;
13611;SDS011;6877;51.436;6.774;2023-07-31T05:22:31;16.95;;;6.50;;
13611;SDS011;6877;51.436;6.774;2023-07-31T05:24:57;18.02;;;8.80;;
13611;SDS011;6877;51.436;6.774;2023-07-31T05:27:23;19.95;;;8.32;;
13611;SDS011;6877;51.436;6.774;2023-07-31T05:29:50;24.63;;;8.70;;
13611;SDS011;6877;51.436;6.774;2023-07-31T05:32:16;17.55;;;7.72;;
13611;SDS011;6877;51.436;6.774;2023-07-31T05:34:43;12.45;;;7.40;;
13611;SDS011;6877;51.436;6.774;2023-07-31T05:37:14;12.88;;;6.78;;
13611;SDS011;6877;51.436;6.774;2023-07-31T05:39:45;15.98;;;7.18;;
13611;SDS011;6877;51.436;6.774;2023-07-31T05:42:12;18.05;;;7.30;;
13611;SDS011;6877;51.436;6.774;2023-07-31T05:44:38;12.90;;;7.03;;
13611;SDS011;6877;51.436;6.774;2023-07-31T05:47:05;12.75;;;7.53;;
13611;SDS011;6877;51.436;6.774;2023-07-31T05:49:31;19.23;;;7.65;;
13611;SDS011;6877;51.436;6.774;2023-07-31T05:51:58;14.27;;;7.50;;
13611;SDS011;6877;51.436;6.774;2023-07-31T05:54:24;11.23;;;6.22;;
13611;SDS011;6877;51.436;6.774;2023-07-31T05:56:56;11.95;;;6.68;;
13611;SDS011;6877;51.436;6.774;2023-07-31T05:59:22;13.02;;;6.53;;
13611;SDS011;6877;51.436;6.774;2023-07-31T06:01:53;12.45;;;6.10;;
13611;SDS011;6877;51.436;6.774;2023-07-31T06:04:20;12.93;;;5.78;;
13611;SDS011;6877;51.436;6.774;2023-07-31T06:06:46;14.15;;;5.50;;
13611;SDS011;6877;51.436;6.774;2023-07-31T06:09:18;10.95;;;5.53;;
13611;SDS011;6877;51.436;6.774;2023-07-31T06:11:49;13.43;;;5.38;;
13611;SDS011;6877;51.436;6.774;2023-07-31T06:14:16;12.48;;;5.00;;
13611;SDS011;6877;51.436;6.774;2023-07-31T06:16:42;11.88;;;6.75;;
13611;SDS011;6877;51.436;6.774;2023-07-31T06:19:10;13.13;;;6.10;;
13611;SDS011;6877;51.436;6.774;2023-07-31T06:21:41;14.38;;;5.53;;
13611;SDS011;6877;51.436;6.774;2023-07-31T06:24:09;10.77;;;5.03;;
13611;SDS011;6877;51.436;6.774;2023-07-31T06:26:35;15.38;;;5.82;;
13611;SDS011;6877;51.436;6.774;2023-07-31T06:29:02;13.10;;;7.45;;
13611;SDS011;6877;51.436;6.774;2023-07-31T06:31:28;10.75;;;5.10;;
13611;SDS011;6877;51.436;6.774;2023-07-31T06:34:00;13.60;;;5.70;;
13611;SDS011;6877;51.436;6.774;2023-07-31T06:36:26;11.27;;;5.57;;
13611;SDS011;6877;51.436;6.774;2023-07-31T06:38:53;13.55;;;6.25;;
13611;SDS011;6877;51.436;6.774;2023-07-31T06:41:24;11.60;;;6.05;;
13611;SDS011;6877;51.436;6.774;2023-07-31T06:43:51;14.85;;;6.18;;
13611;SDS011;6877;51.436;6.774;2023-07-31T06:46:17;17.52;;;6.18;;
13611;SDS011;6877;51.436;6.774;2023-07-31T06:48:43;13.48;;;5.70;;
13611;SDS011;6877;51.436;6.774;2023-07-31T06:51:15;11.90;;;6.15;;
13611;SDS011;6877;51.436;6.774;2023-07-31T06:53:41;19.00;;;6.68;;
13611;SDS011;6877;51.436;6.774;2023-07-31T06:56:11;9.05;;;5.53;;
13611;SDS011;6877;51.436;6.774;2023-07-31T06:58:37;13.43;;;6.18;;
13611;SDS011;6877;51.436;6.774;2023-07-31T07:01:09;12.48;;;5.50;;
13611;SDS011;6877;51.436;6.774;2023-07-31T07:03:40;13.27;;;5.90;;
13611;SDS011;6877;51.436;6.774;2023-07-31T07:06:07;14.85;;;6.03;;
13611;SDS011;6877;51.436;6.774;2023-07-31T07:08:33;7.82;;;4.55;;
13611;SDS011;6877;51.436;6.774;2023-07-31T07:11:00;13.55;;;4.97;;
13611;SDS011;6877;51.436;6.774;2023-07-31T07:13:26;10.68;;;5.82;;
13611;SDS011;6877;51.436;6.774;2023-07-31T07:15:52;12.20;;;5.60;;
13611;SDS011;6877;51.436;6.774;2023-07-31T07:18:19;13.57;;;5.43;;
13611;SDS011;6877;51.436;6.774;2023-07-31T07:20:47;11.57;;;5.45;;
13611;SDS011;6877;51.436;6.774;2023-07-31T07:23:15;14.10;;;6.25;;
13611;SDS011;6877;51.436;6.774;2023-07-31T07:25:42;16.75;;;7.20;;
13611;SDS011;6877;51.436;6.774;2023-07-31T07:28:09;13.90;;;4.95;;
13611;SDS011;6877;51.436;6.774;2023-07-31T07:30:36;12.00;;;5.25;;
13611;SDS011;6877;51.436;6.774;2023-07-31T07:33:04;12.82;;;6.25;;
13611;SDS011;6877;51.436;6.774;2023-07-31T07:35:32;10.30;;;5.82;;
13611;SDS011;6877;51.436;6.774;2023-07-31T07:38:00;14.55;;;6.30;;
13611;SDS011;6877;51.436;6.774;2023-07-31T07:40:28;12.35;;;6.93;;
13611;SDS011;6877;51.436;6.774;2023-07-31T07:42:54;9.82;;;5.47;;
13611;SDS011;6877;51.436;6.774;2023-07-31T07:45:21;11.35;;;5.72;;
13611;SDS011;6877;51.436;6.774;2023-07-31T07:47:47;11.13;;;5.68;;
13611;SDS011;6877;51.436;6.774;2023-07-31T07:50:14;16.25;;;5.63;;
13611;SDS011;6877;51.436;6.774;2023-07-31T07:52:45;8.70;;;4.95;;
13611;SDS011;6877;51.436;6.774;2023-07-31T07:55:12;12.77;;;5.25;;
13611;SDS011;6877;51.436;6.774;2023-07-31T07:57:38;8.65;;;5.70;;
13611;SDS011;6877;51.436;6.774;2023-07-31T08:00:05;9.02;;;4.30;;
13611;SDS011;6877;51.436;6.774;2023-07-31T08:02:37;12.15;;;5.05;;
13611;SDS011;6877;51.436;6.774;2023-07-31T08:05:03;8.07;;;4.85;;
13611;SDS011;6877;51.436;6.774;2023-07-31T08:07:30;5.70;;;3.95;;
13611;SDS011;6877;51.436;6.774;2023-07-31T08:10:03;8.75;;;4.68;;
13611;SDS011;6877;51.436;6.774;2023-07-31T08:12:35;8.48;;;4.10;;
13611;SDS011;6877;51.436;6.774;2023-07-31T08:15:01;9.48;;;4.97;;
13611;SDS011;6877;51.436;6.774;2023-07-31T08:17:28;12.35;;;5.65;;
13611;SDS011;6877;51.436;6.774;2023-07-31T08:19:59;7.68;;;4.00;;
13611;SDS011;6877;51.436;6.774;2023-07-31T08:22:26;9.25;;;4.32;;
13611;SDS011;6877;51.436;6.774;2023-07-31T08:24:52;5.88;;;4.18;;
13611;SDS011;6877;51.436;6.774;2023-07-31T08:27:23;8.27;;;4.18;;
13611;SDS011;6877;51.436;6.774;2023-07-31T08:29:55;10.75;;;3.90;;
13611;SDS011;6877;51.436;6.774;2023-07-31T08:32:21;6.38;;;4.13;;
13611;SDS011;6877;51.436;6.774;2023-07-31T08:34:48;8.02;;;4.47;;
13611;SDS011;6877;51.436;6.774;2023-07-31T08:37:20;7.55;;;4.50;;
13611;SDS011;6877;51.436;6.774;2023-07-31T08:39:51;10.55;;;4.75;;
13611;SDS011;6877;51.436;6.774;2023-07-31T08:42:23;8.60;;;3.95;;
13611;SDS011;6877;51.436;6.774;2023-07-31T08:44:56;10.15;;;4.03;;
13611;SDS011;6877;51.436;6.774;2023-07-31T08:47:25;9.25;;;4.20;;
13611;SDS011;6877;51.436;6.774;2023-07-31T08:49:57;7.45;;;4.20;;
13611;SDS011;6877;51.436;6.774;2023-07-31T08:52:26;9.02;;;5.07;;
13611;SDS011;6877;51.436;6.774;2023-07-31T08:54:52;5.30;;;4.07;;
13611;SDS011;6877;51.436;6.774;2023-07-31T08:57:23;7.68;;;4.60;;
13611;SDS011;6877;51.436;6.774;2023-07-31T08:59:50;8.38;;;4.70;;
13611;SDS011;6877;51.436;6.774;2023-07-31T09:02:22;8.85;;;4.47;;
13611;SDS011;6877;51.436;6.774;2023-07-31T09:05:01;6.50;;;4.35;;
13611;SDS011;6877;51.436;6.774;2023-07-31T09:07:29;8.07;;;4.35;;
13611;SDS011;6877;51.436;6.774;2023-07-31T09:09:57;9.02;;;4.97;;
13611;SDS011;6877;51.436;6.774;2023-07-31T09:12:25;7.25;;;4.57;;
13611;SDS011;6877;51.436;6.774;2023-07-31T09:14:57;11.32;;;4.47;;
13611;SDS011;6877;51.436;6.774;2023-07-31T09:17:30;6.78;;;4.35;;
13611;SDS011;6877;51.436;6.774;2023-07-31T09:22:48;8.48;;;4.75;;
13611;SDS011;6877;51.436;6.774;2023-07-31T09:25:16;9.63;;;4.72;;
13611;SDS011;6877;51.436;6.774;2023-07-31T09:28:08;7.63;;;4.32;;
13611;SDS011;6877;51.436;6.774;2023-07-31T09:33:15;8.27;;;4.22;;
13611;SDS011;6877;51.436;6.774;2023-07-31T09:35:47;14.27;;;5.38;;
13611;SDS011;6877;51.436;6.774;2023-07-31T09:38:19;8.48;;;4.38;;
13611;SDS011;6877;51.436;6.774;2023-07-31T09:40:46;13.77;;;5.68;;
13611;SDS011;6877;51.436;6.774;2023-07-31T09:43:17;7.95;;;4.10;;
13611;SDS011;6877;51.436;6.774;2023-07-31T09:45:54;9.18;;;4.88;;
13611;SDS011;6877;51.436;6.774;2023-07-31T09:48:23;11.25;;;5.43;;
13611;SDS011;6877;51.436;6.774;2023-07-31T09:50:52;9.40;;;5.35;;
13611;SDS011;6877;51.436;6.774;2023-07-31T09:53:19;14.27;;;6.07;;
13611;SDS011;6877;51.436;6.774;2023-07-31T09:55:45;10.27;;;5.85;;
13611;SDS011;6877;51.436;6.774;2023-07-31T09:58:12;8.68;;;4.88;;
13611;SDS011;6877;51.436;6.774;2023-07-31T10:00:44;10.57;;;4.93;;
13611;SDS011;6877;51.436;6.774;2023-07-31T10:03:16;8.98;;;4.90;;
13611;SDS011;6877;51.436;6.774;2023-07-31T10:05:45;9.65;;;4.32;;
13611;SDS011;6877;51.436;6.774;2023-07-31T10:08:15;5.05;;;4.00;;
13611;SDS011;6877;51.436;6.774;2023-07-31T10:10:49;7.28;;;3.60;;
13611;SDS011;6877;51.436;6.774;2023-07-31T10:13:20;8.10;;;3.60;;
13611;SDS011;6877;51.436;6.774;2023-07-31T10:15:53;6.45;;;3.35;;
13611;SDS011;6877;51.436;6.774;2023-07-31T10:18:25;7.18;;;3.70;;
13611;SDS011;6877;51.436;6.774;2023-07-31T10:20:53;4.18;;;3.40;;
13611;SDS011;6877;51.436;6.774;2023-07-31T10:23:26;7.95;;;4.30;;
13611;SDS011;6877;51.436;6.774;2023-07-31T10:25:53;10.30;;;4.05;;
13611;SDS011;6877;51.436;6.774;2023-07-31T10:28:20;7.43;;;4.32;;
13611;SDS011;6877;51.436;6.774;2023-07-31T10:30:47;17.05;;;4.40;;
13611;SDS011;6877;51.436;6.774;2023-07-31T10:33:20;12.93;;;5.50;;
13611;SDS011;6877;51.436;6.774;2023-07-31T10:35:47;10.00;;;4.40;;
13611;SDS011;6877;51.436;6.774;2023-07-31T10:38:24;9.05;;;4.55;;
13611;SDS011;6877;51.436;6.774;2023-07-31T10:40:51;9.10;;;4.55;;
13611;SDS011;6877;51.436;6.774;2023-07-31T10:43:24;9.00;;;4.43;;
13611;SDS011;6877;51.436;6.774;2023-07-31T10:45:59;7.32;;;4.75;;
13611;SDS011;6877;51.436;6.774;2023-07-31T10:48:25;10.05;;;4.40;;
13611;SDS011;6877;51.436;6.774;2023-07-31T10:50:59;7.57;;;3.85;;
13611;SDS011;6877;51.436;6.774;2023-07-31T10:53:28;8.15;;;4.22;;
13611;SDS011;6877;51.436;6.774;2023-07-31T10:56:14;9.13;;;4.07;;
13611;SDS011;6877;51.436;6.774;2023-07-31T10:58:45;8.95;;;5.15;;
13611;SDS011;6877;51.436;6.774;2023-07-31T11:01:19;7.30;;;3.67;;
13611;SDS011;6877;51.436;6.774;2023-07-31T11:03:50;8.50;;;3.47;;
13611;SDS011;6877;51.436;6.774;2023-07-31T11:06:29;6.45;;;3.70;;
13611;SDS011;6877;51.436;6.774;2023-07-31T11:09:00;10.32;;;5.07;;
13611;SDS011;6877;51.436;6.774;2023-07-31T11:11:32;15.15;;;4.38;;
13611;SDS011;6877;51.436;6.774;2023-07-31T11:13:59;5.63;;;3.65;;
13611;SDS011;6877;51.436;6.774;2023-07-31T11:16:26;6.55;;;4.22;;
13611;SDS011;6877;51.436;6.774;2023-07-31T11:18:54;4.93;;;3.28;;
13611;SDS011;6877;51.436;6.774;2023-07-31T11:21:27;7.22;;;2.85;;
13611;SDS011;6877;51.436;6.774;2023-07-31T11:23:59;7.13;;;3.47;;
13611;SDS011;6877;51.436;6.774;2023-07-31T11:26:31;6.82;;;3.70;;
13611;SDS011;6877;51.436;6.774;2023-07-31T11:28:57;7.18;;;3.53;;
13611;SDS011;6877;51.436;6.774;2023-07-31T11:31:24;7.05;;;3.95;;
13611;SDS011;6877;51.436;6.774;2023-07-31T11:33:50;6.97;;;2.67;;
13611;SDS011;6877;51.436;6.774;2023-07-31T11:36:17;5.35;;;3.55;;
13611;SDS011;6877;51.436;6.774;2023-07-31T11:38:45;9.80;;;3.08;;
13611;SDS011;6877;51.436;6.774;2023-07-31T11:41:13;5.68;;;3.70;;
13611;SDS011;6877;51.436;6.774;2023-07-31T11:43:42;7.18;;;3.67;;
13611;SDS011;6877;51.436;6.774;2023-07-31T11:46:08;9.60;;;4.38;;
13611;SDS011;6877;51.436;6.774;2023-07-31T11:48:40;9.15;;;3.38;;
13611;SDS011;6877;51.436;6.774;2023-07-31T11:51:08;7.45;;;3.35;;
13611;SDS011;6877;51.436;6.774;2023-07-31T11:53:38;11.55;;;4.55;;
13611;SDS011;6877;51.436;6.774;2023-07-31T11:56:17;5.13;;;3.85;;
13611;SDS011;6877;51.436;6.774;2023-07-31T11:58:59;7.40;;;3.83;;
13611;SDS011;6877;51.436;6.774;2023-07-31T12:01:28;9.63;;;3.67;;
13611;SDS011;6877;51.436;6.774;2023-07-31T12:03:55;5.63;;;3.60;;
13611;SDS011;6877;51.436;6.774;2023-07-31T12:06:32;6.47;;;3.60;;
13611;SDS011;6877;51.436;6.774;2023-07-31T12:09:04;9.15;;;3.90;;
13611;SDS011;6877;51.436;6.774;2023-07-31T12:11:42;5.60;;;3.80;;
13611;SDS011;6877;51.436;6.774;2023-07-31T12:14:19;6.75;;;4.43;;
13611;SDS011;6877;51.436;6.774;2023-07-31T12:16:46;5.85;;;3.78;;
13611;SDS011;6877;51.436;6.774;2023-07-31T12:19:18;6.93;;;3.70;;
13611;SDS011;6877;51.436;6.774;2023-07-31T12:21:45;5.90;;;3.30;;
13611;SDS011;6877;51.436;6.774;2023-07-31T12:24:18;6.32;;;3.67;;
13611;SDS011;6877;51.436;6.774;2023-07-31T12:26:45;7.07;;;3.22;;
13611;SDS011;6877;51.436;6.774;2023-07-31T12:29:12;7.63;;;3.55;;
13611;SDS011;6877;51.436;6.774;2023-07-31T12:31:40;5.53;;;3.13;;
13611;SDS011;6877;51.436;6.774;2023-07-31T12:34:17;6.20;;;4.13;;
13611;SDS011;6877;51.436;6.774;2023-07-31T12:36:45;5.45;;;3.00;;
13611;SDS011;6877;51.436;6.774;2023-07-31T12:39:16;5.45;;;3.40;;
13611;SDS011;6877;51.436;6.774;2023-07-31T12:41:48;17.65;;;3.15;;
13611;SDS011;6877;51.436;6.774;2023-07-31T12:44:19;5.47;;;3.45;;
13611;SDS011;6877;51.436;6.774;2023-07-31T12:46:50;7.03;;;2.72;;
13611;SDS011;6877;51.436;6.774;2023-07-31T12:49:17;5.88;;;2.72;;
13611;SDS011;6877;51.436;6.774;2023-07-31T12:51:48;5.90;;;3.13;;
13611;SDS011;6877;51.436;6.774;2023-07-31T12:54:15;7.25;;;3.10;;
13611;SDS011;6877;51.436;6.774;2023-07-31T12:56:41;6.75;;;3.05;;
13611;SDS011;6877;51.436;6.774;2023-07-31T12:59:13;4.18;;;3.10;;
13611;SDS011;6877;51.436;6.774;2023-07-31T13:01:40;4.28;;;3.28;;
13611;SDS011;6877;51.436;6.774;2023-07-31T13:04:11;4.55;;;3.25;;
13611;SDS011;6877;51.436;6.774;2023-07-31T13:06:43;5.22;;;3.00;;
13611;SDS011;6877;51.436;6.774;2023-07-31T13:09:09;9.02;;;3.53;;
13611;SDS011;6877;51.436;6.774;2023-07-31T13:11:41;5.80;;;3.47;;
13611;SDS011;6877;51.436;6.774;2023-07-31T13:14:13;6.32;;;2.85;;
13611;SDS011;6877;51.436;6.774;2023-07-31T13:16:44;3.83;;;2.90;;
13611;SDS011;6877;51.436;6.774;2023-07-31T13:19:11;7.00;;;2.58;;
13611;SDS011;6877;51.436;6.774;2023-07-31T13:21:42;7.63;;;2.70;;
13611;SDS011;6877;51.436;6.774;2023-07-31T13:24:09;5.32;;;3.42;;
13611;SDS011;6877;51.436;6.774;2023-07-31T13:26:36;7.15;;;3.35;;
13611;SDS011;6877;51.436;6.774;2023-07-31T13:29:08;5.80;;;3.10;;
13611;SDS011;6877;51.436;6.774;2023-07-31T13:31:39;8.13;;;3.85;;
13611;SDS011;6877;51.436;6.774;2023-07-31T13:34:11;9.57;;;4.40;;
13611;SDS011;6877;51.436;6.774;2023-07-31T13:36:42;7.20;;;3.95;;
13611;SDS011;6877;51.436;6.774;2023-07-31T13:39:14;9.40;;;3.88;;
13611;SDS011;6877;51.436;6.774;2023-07-31T13:41:40;8.43;;;4.10;;
13611;SDS011;6877;51.436;6.774;2023-07-31T13:44:12;5.35;;;3.55;;
13611;SDS011;6877;51.436;6.774;2023-07-31T13:46:43;11.73;;;4.43;;
13611;SDS011;6877;51.436;6.774;2023-07-31T13:49:15;10.00;;;4.68;;
13611;SDS011;6877;51.436;6.774;2023-07-31T13:51:41;11.57;;;4.97;;
13611;SDS011;6877;51.436;6.774;2023-07-31T13:54:13;9.57;;;6.00;;
13611;SDS011;6877;51.436;6.774;2023-07-31T13:56:41;11.13;;;5.40;;
13611;SDS011;6877;51.436;6.774;2023-07-31T13:59:08;11.30;;;4.93;;
13611;SDS011;6877;51.436;6.774;2023-07-31T14:01:40;10.18;;;4.63;;
13611;SDS011;6877;51.436;6.774;2023-07-31T14:04:11;8.68;;;4.30;;
13611;SDS011;6877;51.436;6.774;2023-07-31T14:06:39;8.45;;;5.32;;
13611;SDS011;6877;51.436;6.774;2023-07-31T14:09:10;8.95;;;3.88;;
13611;SDS011;6877;51.436;6.774;2023-07-31T14:11:42;7.72;;;3.90;;
13611;SDS011;6877;51.436;6.774;2023-07-31T14:14:13;7.07;;;4.30;;
13611;SDS011;6877;51.436;6.774;2023-07-31T14:16:45;6.90;;;3.67;;
13611;SDS011;6877;51.436;6.774;2023-07-31T14:19:16;7.88;;;3.33;;
13611;SDS011;6877;51.436;6.774;2023-07-31T14:21:48;7.45;;;4.35;;
13611;SDS011;6877;51.436;6.774;2023-07-31T14:24:19;8.20;;;4.43;;
13611;SDS011;6877;51.436;6.774;2023-07-31T14:26:50;6.18;;;3.95;;
13611;SDS011;6877;51.436;6.774;2023-07-31T14:29:22;7.28;;;3.88;;
13611;SDS011;6877;51.436;6.774;2023-07-31T14:31:55;9.27;;;4.35;;
13611;SDS011;6877;51.436;6.774;2023-07-31T14:34:21;9.85;;;4.18;;
13611;SDS011;6877;51.436;6.774;2023-07-31T14:36:53;11.30;;;4.85;;
13611;SDS011;6877;51.436;6.774;2023-07-31T14:39:19;12.80;;;4.82;;
13611;SDS011;6877;51.436;6.774;2023-07-31T14:41:46;13.15;;;5.60;;
13611;SDS011;6877;51.436;6.774;2023-07-31T14:44:13;9.02;;;5.63;;
13611;SDS011;6877;51.436;6.774;2023-07-31T14:46:45;10.52;;;5.18;;
13611;SDS011;6877;51.436;6.774;2023-07-31T14:49:11;12.55;;;6.15;;
13611;SDS011;6877;51.436;6.774;2023-07-31T14:51:38;14.65;;;6.00;;
13611;SDS011;6877;51.436;6.774;2023-07-31T14:54:04;10.75;;;5.28;;
13611;SDS011;6877;51.436;6.774;2023-07-31T14:56:31;13.95;;;5.85;;
13611;SDS011;6877;51.436;6.774;2023-07-31T14:59:02;14.77;;;5.70;;
13611;SDS011;6877;51.436;6.774;2023-07-31T15:01:29;8.77;;;5.40;;
13611;SDS011;6877;51.436;6.774;2023-07-31T15:03:56;11.88;;;5.70;;
13611;SDS011;6877;51.436;6.774;2023-07-31T15:06:22;11.95;;;5.65;;
13611;SDS011;6877;51.436;6.774;2023-07-31T15:08:48;9.63;;;5.15;;
13611;SDS011;6877;51.436;6.774;2023-07-31T15:11:15;10.25;;;5.28;;
13611;SDS011;6877;51.436;6.774;2023-07-31T15:13:46;10.55;;;4.60;;